createdAt,value
2019-04-16T00:00:49.933Z,64.56
2019-04-16T00:01:49.915Z,64.56
2019-04-16T00:02:51.384Z,64.67
2019-04-16T00:03:53.689Z,64.87
2019-04-16T00:04:49.882Z,65.18
2019-04-16T00:05:49.902Z,65.52
2019-04-16T00:06:49.872Z,65.21
2019-04-16T00:07:49.835Z,65.31
2019-04-16T00:08:49.828Z,65.21
2019-04-16T00:09:49.817Z,65.42
2019-04-16T00:10:49.843Z,65.31
2019-04-16T00:11:49.783Z,65.62
2019-04-16T00:12:49.784Z,66.14
2019-04-16T00:13:49.759Z,66.76
2019-04-16T00:14:49.760Z,67.27
2019-04-16T00:15:49.782Z,67.72
2019-04-16T00:16:49.739Z,67.51
2019-04-16T00:17:49.732Z,67.10
2019-04-16T00:18:57.363Z,66.89
2019-04-16T00:19:50.705Z,66.48
2019-04-16T00:20:49.734Z,67.30
2019-04-16T00:21:49.687Z,67.41
2019-04-16T00:22:49.680Z,67.82
2019-04-16T00:23:49.660Z,68.06
2019-04-16T00:24:49.656Z,68.27
2019-04-16T00:25:52.031Z,68.58
2019-04-16T00:26:50.623Z,68.88
2019-04-16T00:27:49.621Z,68.27
2019-04-16T00:28:49.602Z,67.75
2019-04-16T00:29:49.622Z,67.13
2019-04-16T00:30:49.604Z,67.24
2019-04-16T00:31:49.580Z,67.13
2019-04-16T00:32:49.564Z,66.82
2019-04-16T00:33:49.551Z,66.72
2019-04-16T00:34:49.542Z,66.41
2019-04-16T00:35:49.572Z,66.61
2019-04-16T00:36:49.519Z,67.03
2019-04-16T00:37:51.641Z,66.82
2019-04-16T00:38:53.926Z,66.61
2019-04-16T00:39:50.491Z,67.34
2019-04-16T00:40:49.486Z,67.54
2019-04-16T00:41:49.447Z,67.78
2019-04-16T00:42:49.457Z,67.88
2019-04-16T00:43:49.439Z,67.58
2019-04-16T00:44:49.435Z,67.68
2019-04-16T00:45:49.436Z,68.61
2019-04-16T00:46:49.406Z,68.19
2019-04-16T00:47:51.445Z,68.40
2019-04-16T00:48:49.390Z,68.40
2019-04-16T00:49:49.396Z,68.30
2019-04-16T00:50:49.402Z,67.68
2019-04-16T00:51:49.359Z,67.27
2019-04-16T00:52:49.354Z,67.68
2019-04-16T00:53:49.331Z,68.51
2019-04-16T00:54:49.335Z,68.92
2019-04-16T00:55:49.326Z,68.82
2019-04-16T00:56:49.304Z,68.40
2019-04-16T00:57:49.323Z,67.78
2019-04-16T00:58:51.756Z,68.02
2019-04-16T00:59:49.276Z,67.47
2019-04-16T01:00:49.281Z,67.16
2019-04-16T01:01:49.260Z,66.75
2019-04-16T01:02:49.242Z,66.13
2019-04-16T01:03:49.221Z,65.89
2019-04-16T01:04:49.214Z,65.89
2019-04-16T01:05:49.232Z,65.89
2019-04-16T01:06:49.199Z,66.20
2019-04-16T01:07:49.183Z,66.41
2019-04-16T01:08:54.820Z,66.85
2019-04-16T01:09:50.177Z,66.13
2019-04-16T01:10:49.182Z,66.33
2019-04-16T01:11:49.766Z,66.85
2019-04-16T01:12:49.133Z,65.82
2019-04-16T01:13:49.185Z,66.03
2019-04-16T01:14:49.101Z,66.41
2019-04-16T01:15:49.134Z,65.06
2019-04-16T01:16:49.079Z,65.37
2019-04-16T01:17:49.072Z,65.17
2019-04-16T01:18:49.061Z,65.48
2019-04-16T01:19:49.059Z,64.65
2019-04-16T01:20:49.109Z,64.52
2019-04-16T01:21:49.046Z,63.79
2019-04-16T01:22:49.046Z,63.69
2019-04-16T01:23:49.614Z,63.79
2019-04-16T01:24:51.558Z,63.69
2019-04-16T01:25:49.034Z,64.42
2019-04-16T01:26:49.011Z,63.07
2019-04-16T01:27:48.970Z,63.49
2019-04-16T01:28:48.988Z,63.69
2019-04-16T01:29:48.962Z,62.53
2019-04-16T01:30:48.938Z,61.80
2019-04-16T01:31:48.960Z,61.16
2019-04-16T01:32:48.927Z,61.36
2019-04-16T01:33:48.903Z,61.36
2019-04-16T01:34:48.893Z,61.26
2019-04-16T01:35:51.597Z,60.95
2019-04-16T01:36:51.340Z,60.95
2019-04-16T01:37:49.869Z,61.16
2019-04-16T01:38:48.829Z,61.16
2019-04-16T01:39:48.840Z,60.95
2019-04-16T01:40:50.211Z,60.95
2019-04-16T01:41:50.340Z,60.75
2019-04-16T01:42:48.820Z,60.85
2019-04-16T01:43:48.819Z,60.95
2019-04-16T01:44:48.764Z,61.36
2019-04-16T01:45:48.770Z,62.40
2019-04-16T01:46:48.781Z,62.01
2019-04-16T01:47:48.749Z,62.43
2019-04-16T01:48:48.731Z,62.53
2019-04-16T01:49:48.709Z,62.12
2019-04-16T01:50:48.710Z,62.12
2019-04-16T01:51:48.737Z,61.70
2019-04-16T01:52:50.305Z,61.91
2019-04-16T01:53:49.434Z,61.80
2019-04-16T01:54:51.331Z,61.26
2019-04-16T01:55:49.639Z,60.85
2019-04-16T01:56:48.664Z,60.95
2019-04-16T01:57:48.633Z,60.85
2019-04-16T01:58:48.619Z,60.23
2019-04-16T01:59:48.610Z,60.21
2019-04-16T02:00:48.617Z,59.69
2019-04-16T02:01:48.624Z,59.58
2019-04-16T02:02:48.594Z,59.89
2019-04-16T02:03:49.525Z,60.21
2019-04-16T02:04:52.021Z,60.51
2019-04-16T02:05:48.535Z,60.72
2019-04-16T02:06:48.574Z,60.75
2019-04-16T02:07:48.521Z,61.47
2019-04-16T02:08:48.515Z,61.80
2019-04-16T02:09:48.507Z,62.43
2019-04-16T02:10:48.506Z,62.76
2019-04-16T02:11:48.524Z,62.66
2019-04-16T02:12:48.459Z,63.49
2019-04-16T02:13:48.466Z,64.03
2019-04-16T02:14:50.305Z,64.14
2019-04-16T02:15:52.963Z,64.55
2019-04-16T02:16:48.466Z,65.09
2019-04-16T02:17:48.415Z,65.20
2019-04-16T02:18:48.407Z,65.54
2019-04-16T02:19:48.396Z,65.85
2019-04-16T02:20:48.394Z,66.06
2019-04-16T02:21:48.395Z,66.47
2019-04-16T02:22:48.356Z,66.47
2019-04-16T02:23:48.802Z,66.36
2019-04-16T02:24:48.683Z,65.95
2019-04-16T02:25:48.532Z,66.19
2019-04-16T02:26:48.332Z,66.60
2019-04-16T02:27:48.307Z,66.60
2019-04-16T02:28:48.322Z,66.60
2019-04-16T02:29:48.348Z,67.02
2019-04-16T02:30:48.262Z,67.22
2019-04-16T02:31:51.551Z,67.22
2019-04-16T02:32:48.257Z,67.25
2019-04-16T02:33:48.256Z,67.67
2019-04-16T02:34:48.252Z,68.08
2019-04-16T02:35:48.232Z,68.08
2019-04-16T02:36:48.221Z,68.08
2019-04-16T02:37:48.225Z,68.40
2019-04-16T02:38:53.320Z,68.29
2019-04-16T02:39:49.655Z,68.40
2019-04-16T02:40:52.834Z,68.49
2019-04-16T02:41:49.184Z,68.29
2019-04-16T02:42:48.172Z,68.40
2019-04-16T02:43:48.138Z,69.25
2019-04-16T02:44:49.848Z,69.25
2019-04-16T02:45:48.131Z,69.25
2019-04-16T02:46:48.112Z,69.15
2019-04-16T02:47:48.116Z,68.94
2019-04-16T02:48:51.351Z,69.04
2019-04-16T02:49:48.069Z,70.08
2019-04-16T02:50:48.074Z,70.18
2019-04-16T02:51:48.065Z,70.29
2019-04-16T02:52:51.086Z,70.08
2019-04-16T02:53:48.029Z,69.67
2019-04-16T02:54:48.019Z,69.87
2019-04-16T02:55:48.040Z,69.46
2019-04-16T02:56:51.576Z,69.67
2019-04-16T02:57:48.020Z,69.87
2019-04-16T02:58:47.985Z,67.98
2019-04-16T02:59:48.025Z,67.33
2019-04-16T03:00:50.418Z,66.06
2019-04-16T03:01:49.351Z,65.12
2019-04-16T03:02:47.961Z,64.58
2019-04-16T03:03:47.922Z,64.34
2019-04-16T03:04:47.917Z,63.10
2019-04-16T03:05:47.924Z,62.46
2019-04-16T03:06:47.889Z,61.50
2019-04-16T03:07:47.887Z,61.16
2019-04-16T03:08:47.883Z,60.85
2019-04-16T03:10:00.578Z,60.02
2019-04-16T03:10:48.887Z,59.89
2019-04-16T03:11:48.955Z,59.58
2019-04-16T03:12:51.895Z,59.17
2019-04-16T03:13:48.825Z,58.86
2019-04-16T03:14:47.815Z,58.63
2019-04-16T03:15:47.845Z,58.42
2019-04-16T03:16:47.790Z,58.11
2019-04-16T03:17:47.784Z,57.81
2019-04-16T03:18:48.387Z,57.68
2019-04-16T03:19:51.053Z,57.37
2019-04-16T03:20:47.742Z,57.37
2019-04-16T03:21:47.759Z,57.16
2019-04-16T03:22:47.725Z,57.16
2019-04-16T03:23:47.719Z,57.16
2019-04-16T03:24:47.704Z,57.37
2019-04-16T03:25:47.693Z,57.16
2019-04-16T03:26:50.505Z,57.16
2019-04-16T03:27:47.660Z,57.26
2019-04-16T03:28:47.656Z,57.26
2019-04-16T03:29:47.640Z,57.39
2019-04-16T03:30:47.657Z,57.29
2019-04-16T03:31:47.660Z,57.50
2019-04-16T03:32:47.602Z,57.39
2019-04-16T03:33:50.433Z,57.18
2019-04-16T03:34:50.434Z,57.09
2019-04-16T03:35:48.585Z,57.29
2019-04-16T03:36:47.590Z,57.29
2019-04-16T03:37:47.567Z,57.39
2019-04-16T03:38:47.569Z,57.29
2019-04-16T03:39:47.538Z,57.60
2019-04-16T03:40:47.530Z,57.60
2019-04-16T03:41:47.547Z,57.39
2019-04-16T03:42:47.507Z,57.18
2019-04-16T03:43:47.496Z,58.04
2019-04-16T03:44:47.484Z,57.83
2019-04-16T03:45:47.467Z,57.42
2019-04-16T03:46:47.755Z,57.52
2019-04-16T03:47:50.992Z,57.18
2019-04-16T03:48:47.470Z,57.29
2019-04-16T03:49:47.426Z,57.60
2019-04-16T03:50:47.421Z,57.09
2019-04-16T03:51:47.416Z,56.98
2019-04-16T03:52:47.398Z,57.18
2019-04-16T03:53:49.544Z,57.73
2019-04-16T03:54:47.385Z,57.52
2019-04-16T03:55:47.358Z,57.73
2019-04-16T03:56:47.393Z,57.21
2019-04-16T03:57:47.346Z,57.11
2019-04-16T03:58:47.334Z,57.21
2019-04-16T03:59:47.317Z,57.42
2019-04-16T04:00:47.315Z,57.32
2019-04-16T04:01:47.304Z,57.62
2019-04-16T04:02:47.296Z,57.52
2019-04-16T04:03:47.286Z,57.11
2019-04-16T04:04:47.256Z,57.11
2019-04-16T04:05:47.246Z,57.32
2019-04-16T04:06:47.253Z,57.42
2019-04-16T04:07:47.236Z,57.45
2019-04-16T04:08:48.246Z,57.96
2019-04-16T04:09:47.222Z,58.17
2019-04-16T04:10:47.194Z,58.37
2019-04-16T04:11:47.256Z,58.06
2019-04-16T04:12:47.159Z,57.86
2019-04-16T04:13:49.979Z,57.65
2019-04-16T04:14:47.153Z,57.86
2019-04-16T04:15:47.142Z,57.76
2019-04-16T04:16:47.132Z,57.76
2019-04-16T04:17:47.139Z,58.06
2019-04-16T04:18:47.102Z,57.65
2019-04-16T04:19:47.110Z,57.65
2019-04-16T04:20:49.649Z,57.45
2019-04-16T04:21:47.078Z,57.96
2019-04-16T04:22:47.082Z,57.99
2019-04-16T04:23:47.044Z,57.89
2019-04-16T04:24:47.032Z,58.20
2019-04-16T04:25:47.048Z,57.86
2019-04-16T04:26:47.009Z,57.55
2019-04-16T04:27:47.727Z,57.03
2019-04-16T04:28:48.567Z,56.93
2019-04-16T04:29:46.989Z,56.70
2019-04-16T04:30:48.706Z,56.49
2019-04-16T04:31:46.953Z,56.49
2019-04-16T04:32:47.632Z,56.90
2019-04-16T04:33:46.950Z,57.11
2019-04-16T04:34:48.833Z,56.90
2019-04-16T04:35:46.934Z,57.11
2019-04-16T04:36:46.930Z,57.32
2019-04-16T04:37:46.930Z,56.80
2019-04-16T04:38:46.888Z,56.80
2019-04-16T04:39:46.878Z,56.39
2019-04-16T04:40:50.414Z,56.39
2019-04-16T04:41:46.859Z,56.05
2019-04-16T04:42:46.869Z,55.85
2019-04-16T04:43:46.834Z,55.43
2019-04-16T04:44:47.215Z,55.23
2019-04-16T04:45:46.810Z,55.23
2019-04-16T04:46:47.086Z,55.13
2019-04-16T04:47:51.368Z,55.23
2019-04-16T04:48:46.778Z,55.13
2019-04-16T04:49:46.806Z,54.90
2019-04-16T04:50:46.773Z,54.92
2019-04-16T04:51:46.753Z,54.90
2019-04-16T04:52:46.928Z,55.10
2019-04-16T04:53:47.604Z,54.90
2019-04-16T04:54:46.722Z,54.79
2019-04-16T04:55:46.740Z,54.48
2019-04-16T04:56:46.691Z,54.69
2019-04-16T04:57:46.721Z,54.48
2019-04-16T04:58:46.666Z,54.48
2019-04-16T04:59:46.666Z,54.17
2019-04-16T05:00:46.637Z,54.15
2019-04-16T05:01:46.629Z,53.84
2019-04-16T05:02:46.662Z,53.74
2019-04-16T05:03:47.298Z,53.63
2019-04-16T05:04:46.634Z,53.43
2019-04-16T05:05:46.616Z,53.84
2019-04-16T05:06:46.593Z,53.74
2019-04-16T05:07:47.405Z,53.84
2019-04-16T05:08:46.587Z,53.63
2019-04-16T05:09:46.557Z,53.20
2019-04-16T05:10:58.354Z,52.89
2019-04-16T05:11:49.492Z,52.66
2019-04-16T05:12:46.556Z,52.01
2019-04-16T05:13:46.506Z,51.68
2019-04-16T05:14:46.516Z,50.63
2019-04-16T05:15:46.510Z,49.97
2019-04-16T05:16:46.484Z,48.59
2019-04-16T05:17:46.463Z,47.01
2019-04-16T05:18:46.516Z,45.61
2019-04-16T05:19:46.450Z,44.65
2019-04-16T05:20:47.105Z,43.82
2019-04-16T05:21:49.617Z,42.90
2019-04-16T05:22:46.422Z,43.51
2019-04-16T05:23:46.430Z,43.84
2019-04-16T05:24:46.385Z,43.94
2019-04-16T05:25:46.372Z,43.53
2019-04-16T05:26:46.365Z,43.61
2019-04-16T05:27:46.352Z,42.36
2019-04-16T05:28:46.373Z,41.63
2019-04-16T05:29:48.808Z,40.88
2019-04-16T05:30:46.324Z,40.76
2019-04-16T05:31:46.335Z,39.40
2019-04-16T05:32:46.309Z,38.65
2019-04-16T05:33:46.336Z,38.02
2019-04-16T05:34:46.263Z,37.61
2019-04-16T05:35:46.275Z,37.37
2019-04-16T05:36:47.849Z,36.58
2019-04-16T05:37:48.583Z,37.41
2019-04-16T05:38:47.242Z,37.21
2019-04-16T05:39:46.223Z,36.36
2019-04-16T05:40:46.217Z,37.19
2019-04-16T05:41:46.216Z,36.38
2019-04-16T05:42:46.198Z,36.16
2019-04-16T05:43:46.203Z,36.88
2019-04-16T05:44:46.179Z,36.60
2019-04-16T05:45:46.157Z,36.90
2019-04-16T05:46:46.807Z,36.80
2019-04-16T05:47:48.784Z,37.19
2019-04-16T05:48:46.147Z,36.05
2019-04-16T05:49:46.103Z,35.19
2019-04-16T05:50:46.106Z,34.78
2019-04-16T05:51:46.136Z,36.14
2019-04-16T05:52:46.077Z,35.53
2019-04-16T05:53:46.093Z,36.05
2019-04-16T05:54:46.072Z,35.94
2019-04-16T05:55:49.682Z,35.09
2019-04-16T05:56:46.068Z,34.78
2019-04-16T05:57:46.056Z,34.91
2019-04-16T05:58:46.019Z,34.78
2019-04-16T05:59:46.010Z,35.41
2019-04-16T06:00:45.998Z,34.75
2019-04-16T06:01:46.191Z,34.14
2019-04-16T06:02:49.687Z,34.14
2019-04-16T06:03:45.964Z,33.72
2019-04-16T06:04:45.963Z,33.44
2019-04-16T06:05:45.943Z,34.26
2019-04-16T06:06:45.945Z,34.25
2019-04-16T06:07:45.953Z,33.72
2019-04-16T06:08:45.920Z,33.84
2019-04-16T06:09:45.893Z,34.34
2019-04-16T06:10:49.693Z,33.83
2019-04-16T06:11:46.896Z,33.32
2019-04-16T06:12:45.894Z,33.42
2019-04-16T06:13:45.886Z,33.50
2019-04-16T06:14:46.546Z,32.16
2019-04-16T06:15:45.875Z,32.48
2019-04-16T06:16:45.826Z,32.91
2019-04-16T06:17:45.856Z,33.54
2019-04-16T06:18:45.816Z,33.71
2019-04-16T06:19:46.794Z,32.46
2019-04-16T06:20:45.794Z,32.13
2019-04-16T06:21:45.791Z,31.61
2019-04-16T06:22:45.780Z,31.42
2019-04-16T06:23:48.260Z,32.07
2019-04-16T06:24:45.772Z,32.55
2019-04-16T06:25:45.756Z,31.34
2019-04-16T06:26:47.350Z,32.03
2019-04-16T06:27:45.811Z,31.09
2019-04-16T06:28:45.719Z,31.81
2019-04-16T06:29:47.096Z,32.04
2019-04-16T06:30:45.698Z,31.82
2019-04-16T06:31:45.670Z,31.18
2019-04-16T06:32:45.656Z,29.95
2019-04-16T06:33:45.706Z,30.18
2019-04-16T06:34:45.659Z,30.67
2019-04-16T06:35:45.647Z,30.80
2019-04-16T06:36:45.640Z,31.73
2019-04-16T06:37:45.863Z,30.99
2019-04-16T06:38:45.647Z,30.94
2019-04-16T06:39:45.591Z,29.42
2019-04-16T06:40:45.580Z,29.68
2019-04-16T06:41:48.355Z,28.57
2019-04-16T06:42:45.569Z,29.06
2019-04-16T06:43:45.578Z,29.07
2019-04-16T06:44:45.537Z,28.58
2019-04-16T06:45:45.532Z,29.91
2019-04-16T06:46:45.526Z,29.32
2019-04-16T06:47:45.503Z,29.82
2019-04-16T06:48:45.990Z,29.63
2019-04-16T06:49:48.179Z,30.34
2019-04-16T06:50:46.515Z,30.32
2019-04-16T06:51:45.483Z,30.35
2019-04-16T06:52:46.164Z,31.42
2019-04-16T06:53:45.479Z,31.82
2019-04-16T06:54:45.726Z,31.27
2019-04-16T06:55:45.452Z,30.02
2019-04-16T06:56:45.431Z,29.83
2019-04-16T06:57:45.417Z,30.98
2019-04-16T06:58:51.373Z,30.76
2019-04-16T06:59:46.408Z,30.36
2019-04-16T07:00:45.386Z,31.07
2019-04-16T07:01:45.398Z,30.32
2019-04-16T07:03:01.315Z,29.21
2019-04-16T07:03:46.385Z,29.72
2019-04-16T07:04:45.349Z,29.75
2019-04-16T07:05:45.336Z,30.35
2019-04-16T07:06:45.372Z,30.02
2019-04-16T07:07:46.803Z,28.90
2019-04-16T07:08:49.818Z,30.35
2019-04-16T07:09:46.312Z,30.01
2019-04-16T07:10:45.304Z,28.88
2019-04-16T07:11:54.428Z,28.99
2019-04-16T07:12:46.338Z,29.11
2019-04-16T07:13:45.319Z,29.47
2019-04-16T07:14:45.563Z,28.96
2019-04-16T07:15:45.241Z,28.76
2019-04-16T07:16:45.300Z,28.67
2019-04-16T07:17:45.223Z,28.37
2019-04-16T07:18:45.229Z,28.73
2019-04-16T07:19:45.200Z,27.74
2019-04-16T07:20:45.874Z,28.07
2019-04-16T07:21:48.642Z,29.27
2019-04-16T07:22:45.175Z,28.96
2019-04-16T07:23:46.437Z,29.38
2019-04-16T07:24:45.159Z,28.52
2019-04-16T07:25:45.704Z,28.00
2019-04-16T07:26:47.832Z,27.91
2019-04-16T07:27:45.252Z,28.02
2019-04-16T07:28:45.215Z,27.60
2019-04-16T07:29:46.630Z,27.47
2019-04-16T07:30:45.143Z,27.19
2019-04-16T07:31:45.092Z,26.86
2019-04-16T07:32:45.100Z,26.25
2019-04-16T07:33:45.070Z,27.04
2019-04-16T07:34:45.072Z,26.40
2019-04-16T07:35:45.044Z,24.87
2019-04-16T07:36:45.079Z,25.31
2019-04-16T07:37:45.038Z,25.21
2019-04-16T07:38:45.034Z,26.73
2019-04-16T07:39:46.440Z,25.73
2019-04-16T07:40:45.029Z,26.76
2019-04-16T07:41:45.031Z,27.81
2019-04-16T07:42:51.618Z,27.97
2019-04-16T07:43:45.989Z,30.46
2019-04-16T07:44:44.982Z,31.39
2019-04-16T07:45:44.948Z,31.20
2019-04-16T07:46:47.098Z,32.35
2019-04-16T07:47:44.939Z,32.32
2019-04-16T07:48:44.904Z,31.71
2019-04-16T07:49:44.910Z,31.39
2019-04-16T07:50:44.904Z,30.77
2019-04-16T07:51:44.887Z,30.79
2019-04-16T07:52:44.927Z,31.81
2019-04-16T07:53:47.404Z,31.51
2019-04-16T07:54:44.861Z,31.62
2019-04-16T07:55:44.851Z,31.36
2019-04-16T07:56:44.854Z,30.28
2019-04-16T07:57:44.850Z,28.41
2019-04-16T07:58:44.818Z,27.06
2019-04-16T07:59:44.830Z,27.78
2019-04-16T08:00:44.813Z,27.37
2019-04-16T08:01:47.770Z,27.59
2019-04-16T08:02:44.805Z,28.10
2019-04-16T08:03:44.755Z,29.06
2019-04-16T08:04:44.770Z,29.91
2019-04-16T08:05:44.775Z,30.50
2019-04-16T08:06:47.154Z,29.78
2019-04-16T08:07:44.774Z,29.46
2019-04-16T08:08:44.710Z,28.96
2019-04-16T08:09:44.732Z,30.28
2019-04-16T08:10:44.707Z,29.88
2019-04-16T08:11:44.697Z,29.03
2019-04-16T08:12:44.715Z,28.02
2019-04-16T08:13:44.682Z,29.57
2019-04-16T08:14:44.687Z,29.86
2019-04-16T08:15:44.662Z,29.06
2019-04-16T08:16:47.660Z,29.69
2019-04-16T08:17:44.645Z,30.10
2019-04-16T08:18:44.637Z,29.86
2019-04-16T08:19:48.032Z,29.66
2019-04-16T08:20:44.586Z,29.42
2019-04-16T08:21:44.700Z,28.49
2019-04-16T08:22:47.186Z,28.08
2019-04-16T08:23:44.567Z,28.59
2019-04-16T08:24:44.572Z,29.63
2019-04-16T08:25:44.539Z,28.89
2019-04-16T08:26:45.384Z,28.78
2019-04-16T08:27:47.092Z,27.53
2019-04-16T08:28:44.521Z,26.10
2019-04-16T08:29:44.501Z,26.39
2019-04-16T08:30:44.490Z,25.59
2019-04-16T08:31:44.905Z,26.42
2019-04-16T08:32:45.858Z,26.41
2019-04-16T08:33:44.490Z,25.78
2019-04-16T08:34:44.477Z,25.48
2019-04-16T08:35:44.482Z,25.98
2019-04-16T08:36:44.428Z,25.46
2019-04-16T08:37:49.237Z,24.96
2019-04-16T08:38:45.411Z,25.37
2019-04-16T08:39:44.429Z,26.41
2019-04-16T08:40:46.232Z,26.61
2019-04-16T08:41:44.384Z,26.42
2019-04-16T08:42:45.102Z,26.51
2019-04-16T08:43:44.362Z,26.43
2019-04-16T08:44:44.357Z,27.14
2019-04-16T08:45:44.334Z,26.52
2019-04-16T08:46:44.312Z,27.03
2019-04-16T08:47:44.902Z,26.93
2019-04-16T08:48:48.955Z,26.40
2019-04-16T08:49:45.324Z,26.14
2019-04-16T08:50:44.293Z,27.79
2019-04-16T08:51:44.300Z,28.41
2019-04-16T08:52:44.297Z,28.29
2019-04-16T08:53:46.707Z,27.56
2019-04-16T08:54:44.255Z,27.14
2019-04-16T08:55:44.245Z,26.32
2019-04-16T08:56:44.260Z,26.50
2019-04-16T08:57:46.808Z,25.49
2019-04-16T08:58:44.220Z,25.49
2019-04-16T08:59:44.193Z,26.09
2019-04-16T09:00:46.400Z,25.55
2019-04-16T09:01:44.188Z,24.82
2019-04-16T09:02:44.168Z,24.95
2019-04-16T09:03:44.190Z,24.56
2019-04-16T09:04:44.164Z,25.57
2019-04-16T09:05:44.134Z,26.59
2019-04-16T09:06:46.384Z,25.67
2019-04-16T09:07:44.108Z,26.10
2019-04-16T09:08:44.119Z,26.02
2019-04-16T09:09:44.094Z,25.99
2019-04-16T09:10:44.828Z,26.62
2019-04-16T09:11:44.068Z,26.52
2019-04-16T09:12:47.581Z,26.51
2019-04-16T09:13:48.136Z,26.50
2019-04-16T09:14:44.014Z,26.18
2019-04-16T09:15:44.034Z,26.48
2019-04-16T09:16:44.036Z,26.35
2019-04-16T09:17:44.015Z,25.93
2019-04-16T09:18:47.086Z,25.56
2019-04-16T09:19:43.995Z,25.76
2019-04-16T09:20:43.990Z,26.07
2019-04-16T09:21:44.559Z,26.16
2019-04-16T09:22:49.072Z,26.37
2019-04-16T09:23:44.976Z,26.27
2019-04-16T09:24:43.951Z,26.27
2019-04-16T09:25:45.843Z,26.15
2019-04-16T09:26:43.939Z,26.62
2019-04-16T09:27:43.911Z,25.00
2019-04-16T09:28:43.942Z,25.21
2019-04-16T09:29:43.893Z,25.32
2019-04-16T09:30:46.608Z,25.93
2019-04-16T09:31:44.855Z,25.91
2019-04-16T09:32:43.867Z,25.95
2019-04-16T09:33:43.865Z,25.23
2019-04-16T09:34:43.802Z,25.42
2019-04-16T09:35:45.115Z,25.54
2019-04-16T09:36:43.820Z,25.15
2019-04-16T09:37:43.791Z,25.97
2019-04-16T09:38:45.545Z,26.98
2019-04-16T09:39:43.770Z,26.57
2019-04-16T09:40:43.777Z,26.26
2019-04-16T09:41:43.767Z,26.54
2019-04-16T09:42:43.758Z,26.89
2019-04-16T09:43:43.778Z,27.73
2019-04-16T09:44:43.741Z,28.16
2019-04-16T09:45:43.711Z,29.21
2019-04-16T09:46:51.136Z,29.79
2019-04-16T09:47:44.709Z,29.48
2019-04-16T09:48:43.688Z,29.16
2019-04-16T09:49:43.703Z,28.66
2019-04-16T09:50:47.557Z,28.77
2019-04-16T09:51:43.665Z,29.49
2019-04-16T09:52:43.663Z,29.81
2019-04-16T09:53:43.656Z,30.02
2019-04-16T09:54:44.485Z,30.21
2019-04-16T09:55:43.618Z,29.47
2019-04-16T09:56:43.605Z,29.60
2019-04-16T09:57:43.629Z,29.86
2019-04-16T09:58:43.619Z,29.03
2019-04-16T09:59:44.670Z,28.53
2019-04-16T10:00:43.615Z,28.33
2019-04-16T10:01:43.545Z,29.25
2019-04-16T10:02:43.573Z,29.03
2019-04-16T10:03:43.538Z,29.02
2019-04-16T10:04:43.540Z,28.50
2019-04-16T10:05:43.518Z,27.98
2019-04-16T10:06:43.509Z,27.06
2019-04-16T10:07:43.491Z,27.53
2019-04-16T10:08:44.938Z,26.54
2019-04-16T10:09:43.495Z,26.72
2019-04-16T10:10:43.477Z,26.20
2019-04-16T10:11:43.458Z,26.33
2019-04-16T10:12:43.473Z,27.36
2019-04-16T10:13:43.423Z,27.34
2019-04-16T10:14:43.482Z,28.67
2019-04-16T10:15:43.415Z,27.66
2019-04-16T10:16:43.434Z,27.27
2019-04-16T10:17:43.413Z,28.09
2019-04-16T10:18:43.412Z,27.77
2019-04-16T10:19:43.970Z,27.66
2019-04-16T10:20:43.377Z,28.28
2019-04-16T10:21:43.383Z,28.98
2019-04-16T10:22:43.392Z,28.68
2019-04-16T10:23:43.329Z,28.18
2019-04-16T10:24:43.359Z,28.80
2019-04-16T10:25:43.329Z,29.08
2019-04-16T10:26:43.319Z,28.36
2019-04-16T10:27:43.309Z,27.37
2019-04-16T10:28:43.303Z,28.77
2019-04-16T10:29:43.315Z,27.95
2019-04-16T10:30:43.296Z,27.57
2019-04-16T10:31:43.248Z,28.17
2019-04-16T10:32:43.253Z,28.36
2019-04-16T10:33:43.222Z,27.83
2019-04-16T10:34:43.254Z,27.74
2019-04-16T10:35:43.196Z,28.47
2019-04-16T10:36:43.245Z,28.23
2019-04-16T10:37:43.259Z,27.73
2019-04-16T10:38:43.186Z,27.22
2019-04-16T10:39:43.207Z,27.32
2019-04-16T10:40:43.232Z,27.23
2019-04-16T10:41:43.169Z,27.84
2019-04-16T10:42:43.131Z,28.03
2019-04-16T10:43:44.861Z,28.22
2019-04-16T10:44:43.124Z,28.03
2019-04-16T10:45:43.101Z,27.83
2019-04-16T10:46:43.074Z,27.83
2019-04-16T10:47:43.117Z,27.93
2019-04-16T10:48:43.103Z,28.02
2019-04-16T10:49:43.284Z,28.64
2019-04-16T10:50:43.068Z,29.06
2019-04-16T10:51:43.055Z,29.15
2019-04-16T10:52:43.240Z,29.04
2019-04-16T10:53:43.166Z,28.53
2019-04-16T10:54:43.352Z,29.35
2019-04-16T10:55:43.286Z,29.24
2019-04-16T10:56:43.019Z,29.13
2019-04-16T10:57:42.986Z,29.04
2019-04-16T10:58:42.956Z,29.34
2019-04-16T10:59:42.959Z,29.22
2019-04-16T11:00:42.940Z,29.81
2019-04-16T11:01:42.953Z,29.82
2019-04-16T11:02:42.923Z,29.81
2019-04-16T11:03:42.916Z,29.63
2019-04-16T11:04:43.913Z,28.52
2019-04-16T11:05:42.990Z,28.90
2019-04-16T11:06:42.982Z,28.97
2019-04-16T11:07:42.863Z,27.85
2019-04-16T11:08:42.869Z,28.58
2019-04-16T11:09:42.879Z,28.58
2019-04-16T11:10:42.865Z,28.52
2019-04-16T11:11:42.854Z,28.74
2019-04-16T11:12:42.809Z,29.22
2019-04-16T11:13:42.848Z,28.71
2019-04-16T11:14:42.777Z,28.19
2019-04-16T11:15:42.831Z,27.79
2019-04-16T11:16:42.794Z,28.91
2019-04-16T11:17:42.788Z,30.29
2019-04-16T11:18:42.749Z,28.88
2019-04-16T11:19:42.746Z,30.65
2019-04-16T11:20:42.750Z,30.16
2019-04-16T11:21:42.714Z,30.15
2019-04-16T11:22:42.730Z,30.62
2019-04-16T11:23:42.714Z,30.31
2019-04-16T11:24:42.703Z,28.99
2019-04-16T11:25:42.706Z,28.78
2019-04-16T11:26:44.394Z,28.57
2019-04-16T11:27:42.710Z,28.94
2019-04-16T11:28:42.784Z,28.44
2019-04-16T11:29:42.733Z,27.99
2019-04-16T11:30:42.709Z,29.95
2019-04-16T11:31:42.602Z,30.87
2019-04-16T11:32:42.653Z,30.68
2019-04-16T11:33:42.608Z,30.68
2019-04-16T11:34:42.585Z,30.98
2019-04-16T11:35:42.595Z,30.66
2019-04-16T11:36:42.583Z,30.25
2019-04-16T11:37:44.504Z,30.65
2019-04-16T11:38:42.551Z,30.95
2019-04-16T11:39:42.547Z,30.63
2019-04-16T11:40:42.581Z,30.42
2019-04-16T11:41:42.582Z,29.31
2019-04-16T11:42:42.548Z,29.22
2019-04-16T11:43:42.498Z,28.63
2019-04-16T11:44:42.483Z,29.03
2019-04-16T11:45:42.467Z,29.72
2019-04-16T11:46:42.505Z,29.82
2019-04-16T11:47:42.458Z,30.15
2019-04-16T11:48:42.487Z,31.20
2019-04-16T11:49:42.435Z,31.28
2019-04-16T11:50:42.429Z,30.77
2019-04-16T11:51:42.414Z,30.88
2019-04-16T11:52:42.456Z,31.78
2019-04-16T11:53:42.402Z,31.57
2019-04-16T11:54:46.770Z,30.77
2019-04-16T11:55:43.506Z,31.68
2019-04-16T11:56:42.355Z,31.08
2019-04-16T11:57:42.343Z,31.20
2019-04-16T11:58:42.307Z,31.91
2019-04-16T11:59:42.329Z,33.12
2019-04-16T12:00:42.359Z,31.94
2019-04-16T12:01:42.310Z,32.96
2019-04-16T12:02:42.279Z,33.66
2019-04-16T12:03:42.261Z,33.24
2019-04-16T12:04:42.276Z,33.46
2019-04-16T12:05:42.315Z,33.86
2019-04-16T12:06:42.287Z,33.96
2019-04-16T12:07:42.302Z,33.76
2019-04-16T12:08:42.248Z,33.58
2019-04-16T12:09:42.233Z,33.87
2019-04-16T12:10:42.234Z,33.79
2019-04-16T12:11:42.235Z,34.31
2019-04-16T12:12:42.197Z,34.41
2019-04-16T12:13:42.243Z,34.59
2019-04-16T12:14:43.530Z,34.36
2019-04-16T12:15:42.233Z,33.94
2019-04-16T12:16:42.165Z,32.54
2019-04-16T12:17:42.231Z,33.86
2019-04-16T12:18:42.165Z,34.26
2019-04-16T12:19:44.826Z,33.76
2019-04-16T12:20:42.096Z,32.15
2019-04-16T12:21:42.185Z,32.97
2019-04-16T12:22:42.153Z,33.37
2019-04-16T12:23:42.222Z,33.17
2019-04-16T12:24:42.042Z,34.31
2019-04-16T12:25:42.030Z,34.92
2019-04-16T12:26:42.077Z,35.41
2019-04-16T12:27:42.041Z,34.91
2019-04-16T12:28:43.204Z,34.89
2019-04-16T12:29:42.004Z,35.01
2019-04-16T12:30:42.010Z,35.11
2019-04-16T12:31:42.036Z,34.89
2019-04-16T12:32:41.982Z,34.80
2019-04-16T12:33:41.966Z,34.29
2019-04-16T12:34:41.970Z,34.21
2019-04-16T12:35:45.220Z,34.92
2019-04-16T12:36:41.942Z,35.86
2019-04-16T12:37:41.909Z,36.57
2019-04-16T12:38:41.957Z,35.86
2019-04-16T12:39:42.039Z,36.49
2019-04-16T12:40:42.284Z,36.99
2019-04-16T12:41:41.922Z,36.80
2019-04-16T12:42:42.503Z,37.51
2019-04-16T12:43:41.908Z,38.13
2019-04-16T12:44:45.607Z,37.51
2019-04-16T12:45:41.837Z,36.79
2019-04-16T12:46:41.870Z,37.29
2019-04-16T12:47:41.792Z,37.10
2019-04-16T12:48:41.796Z,38.01
2019-04-16T12:49:41.773Z,37.61
2019-04-16T12:50:41.788Z,37.81
2019-04-16T12:51:41.829Z,37.41
2019-04-16T12:52:41.788Z,37.41